sensor_id;sensor_type;location;lat;lon;timestamp;pressure;altitude;pressure_sealevel;temperature;humidity
72444;BME280;60449;52.016;5.414;2022-10-19T11:57:17;102524.16;;;17.05;60.67
72444;BME280;60449;52.016;5.414;2022-10-19T11:58:27;102519.91;;;17.30;59.77
72444;BME280;60449;52.016;5.414;2022-10-19T11:59:44;102522.72;;;17.60;59.73
72444;BME280;60449;52.016;5.414;2022-10-19T12:00:50;102520.13;;;17.89;59.08
72444;BME280;60449;52.016;5.414;2022-10-19T12:01:56;102517.59;;;18.22;58.54
72444;BME280;60449;52.016;5.414;2022-10-19T12:03:09;102511.41;;;18.59;57.86
72444;BME280;60449;52.016;5.414;2022-10-19T12:04:40;102508.75;;;19.07;56.93
72444;BME280;60449;52.016;5.414;2022-10-19T12:06:00;102514.84;;;19.48;55.96
72444;BME280;60449;52.016;5.414;2022-10-19T12:07:14;102516.47;;;19.89;55.15
72444;BME280;60449;52.016;5.414;2022-10-19T12:08:32;102504.63;;;20.32;54.11
72444;BME280;60449;52.016;5.414;2022-10-19T12:09:45;102499.84;;;20.70;53.15
72444;BME280;60449;52.016;5.414;2022-10-19T12:10:46;102491.53;;;21.01;52.19
72444;BME280;60449;52.016;5.414;2022-10-19T12:11:59;102490.28;;;21.33;51.38
72444;BME280;60449;52.016;5.414;2022-10-19T12:13:04;102491.69;;;21.65;50.50
72444;BME280;60449;52.016;5.414;2022-10-19T12:14:03;102479.72;;;21.90;49.92
72444;BME280;60449;52.016;5.414;2022-10-19T12:15:11;102490.09;;;22.16;49.00
72444;BME280;60449;52.016;5.414;2022-10-19T12:16:20;102479.78;;;22.46;48.35
72444;BME280;60449;52.016;5.414;2022-10-19T12:17:22;102493.72;;;22.70;47.75
72444;BME280;60449;52.016;5.414;2022-10-19T12:18:23;102489.72;;;22.93;47.14
72444;BME280;60449;52.016;5.414;2022-10-19T12:19:25;102491.16;;;23.13;46.53
72444;BME280;60449;52.016;5.414;2022-10-19T12:20:30;102490.78;;;23.33;45.95
72444;BME280;60449;52.016;5.414;2022-10-19T12:21:29;102485.91;;;23.52;45.38
72444;BME280;60449;52.016;5.414;2022-10-19T12:22:25;102481.03;;;23.70;45.25
72444;BME280;60449;52.016;5.414;2022-10-19T12:23:26;102477.00;;;23.88;44.75
72444;BME280;60449;52.016;5.414;2022-10-19T12:24:26;102476.66;;;24.05;44.27
72444;BME280;60449;52.016;5.414;2022-10-19T12:25:19;102470.06;;;24.18;43.41
72444;BME280;60449;52.016;5.414;2022-10-19T12:26:15;102472.41;;;24.32;43.03
72444;BME280;60449;52.016;5.414;2022-10-19T12:27:11;102468.44;;;24.47;42.80
72444;BME280;60449;52.016;5.414;2022-10-19T12:28:09;102469.06;;;24.59;42.48
72444;BME280;60449;52.016;5.414;2022-10-19T12:29:14;102465.03;;;24.74;42.03
72444;BME280;60449;52.016;5.414;2022-10-19T12:30:15;102465.63;;;24.87;41.79
72444;BME280;60449;52.016;5.414;2022-10-19T12:31:09;102471.56;;;25.00;41.83
72444;BME280;60449;52.016;5.414;2022-10-19T12:32:04;102469.50;;;25.10;41.41
72444;BME280;60449;52.016;5.414;2022-10-19T12:33:05;102458.38;;;25.21;41.07
72444;BME280;60449;52.016;5.414;2022-10-19T12:34:21;102457.09;;;25.34;40.92
72444;BME280;60449;52.016;5.414;2022-10-19T12:35:34;102453.09;;;25.48;40.55
72444;BME280;60449;52.016;5.414;2022-10-19T12:36:45;102444.66;;;25.60;40.61
72444;BME280;60449;52.016;5.414;2022-10-19T12:37:43;102448.88;;;25.69;40.50
72444;BME280;60449;52.016;5.414;2022-10-19T12:38:50;102454.00;;;25.78;39.99
72444;BME280;60449;52.016;5.414;2022-10-19T12:39:56;102455.53;;;25.87;39.78
72444;BME280;60449;52.016;5.414;2022-10-19T12:40:59;102451.63;;;25.96;39.47
72444;BME280;60449;52.016;5.414;2022-10-19T12:42:05;102449.56;;;26.04;39.26
72444;BME280;60449;52.016;5.414;2022-10-19T12:43:09;102456.47;;;26.13;39.18
72444;BME280;60449;52.016;5.414;2022-10-19T12:44:33;102442.72;;;26.21;38.77
72444;BME280;60449;52.016;5.414;2022-10-19T12:45:49;102442.44;;;26.30;38.71
72444;BME280;60449;52.016;5.414;2022-10-19T12:46:52;102437.72;;;26.35;38.66
72444;BME280;60449;52.016;5.414;2022-10-19T12:48:15;102425.72;;;26.44;38.67
72444;BME280;60449;52.016;5.414;2022-10-19T12:49:44;102425.41;;;26.53;38.31
72444;BME280;60449;52.016;5.414;2022-10-19T12:51:01;102423.34;;;26.60;38.49
72444;BME280;60449;52.016;5.414;2022-10-19T12:51:58;102415.94;;;26.65;38.50
72444;BME280;60449;52.016;5.414;2022-10-19T12:52:49;102414.03;;;26.69;38.47
72444;BME280;60449;52.016;5.414;2022-10-19T12:53:44;102416.56;;;26.73;38.60
72444;BME280;60449;52.016;5.414;2022-10-19T12:54:40;102413.75;;;26.77;38.47
72444;BME280;60449;52.016;5.414;2022-10-19T12:55:35;102415.38;;;26.81;38.57
72444;BME280;60449;52.016;5.414;2022-10-19T12:56:26;102408.03;;;26.86;38.28
72444;BME280;60449;52.016;5.414;2022-10-19T12:57:25;102401.56;;;26.90;38.62
72444;BME280;60449;52.016;5.414;2022-10-19T12:58:20;102397.88;;;26.93;38.42
72444;BME280;60449;52.016;5.414;2022-10-19T12:59:22;102397.66;;;26.97;38.32
72444;BME280;60449;52.016;5.414;2022-10-19T13:00:20;102403.00;;;27.00;38.07
72444;BME280;60449;52.016;5.414;2022-10-19T13:01:17;102401.03;;;27.04;38.16
72444;BME280;60449;52.016;5.414;2022-10-19T13:02:25;102400.03;;;27.07;37.99
72444;BME280;60449;52.016;5.414;2022-10-19T13:03:21;102395.31;;;27.12;38.25
72444;BME280;60449;52.016;5.414;2022-10-19T13:04:17;102393.44;;;27.14;37.79
72444;BME280;60449;52.016;5.414;2022-10-19T13:05:19;102392.44;;;27.17;37.93
72444;BME280;60449;52.016;5.414;2022-10-19T13:06:12;102392.31;;;27.20;37.71
72444;BME280;60449;52.016;5.414;2022-10-19T13:07:08;102391.31;;;27.22;37.69
72444;BME280;60449;52.016;5.414;2022-10-19T13:08:01;102388.47;;;27.25;37.78
72444;BME280;60449;52.016;5.414;2022-10-19T13:08:56;102389.31;;;27.27;37.57
72444;BME280;60449;52.016;5.414;2022-10-19T13:09:59;102382.00;;;27.29;37.78
72444;BME280;60449;52.016;5.414;2022-10-19T13:11:03;102380.13;;;27.32;37.79
72444;BME280;60449;52.016;5.414;2022-10-19T13:12:25;102380.00;;;27.35;37.62
72444;BME280;60449;52.016;5.414;2022-10-19T13:13:53;102376.22;;;27.39;37.55
72444;BME280;60449;52.016;5.414;2022-10-19T13:14:53;102377.03;;;27.41;37.52
72444;BME280;60449;52.016;5.414;2022-10-19T13:15:52;102367.97;;;27.42;37.51
72444;BME280;60449;52.016;5.414;2022-10-19T13:17:04;102365.16;;;27.45;37.38
72444;BME280;60449;52.016;5.414;2022-10-19T13:17:56;102368.69;;;27.47;37.40
72444;BME280;60449;52.016;5.414;2022-10-19T13:19:01;102374.09;;;27.47;37.33
72444;BME280;60449;52.016;5.414;2022-10-19T13:21:45;102380.25;;;27.52;37.44
72444;BME280;60449;52.016;5.414;2022-10-19T13:22:41;102377.41;;;27.55;37.29
72444;BME280;60449;52.016;5.414;2022-10-19T13:23:37;102365.69;;;27.55;37.04
72444;BME280;60449;52.016;5.414;2022-10-19T13:24:34;102363.81;;;27.57;37.15
72444;BME280;60449;52.016;5.414;2022-10-19T13:25:26;102368.31;;;27.56;37.17
72444;BME280;60449;52.016;5.414;2022-10-19T13:26:30;102361.00;;;27.58;37.10
72444;BME280;60449;52.016;5.414;2022-10-19T13:27:34;102368.19;;;27.60;37.11
72444;BME280;60449;52.016;5.414;2022-10-19T13:28:36;102361.84;;;27.61;36.94
72444;BME280;60449;52.016;5.414;2022-10-19T13:29:39;102367.19;;;27.62;37.00
72444;BME280;60449;52.016;5.414;2022-10-19T13:30:57;102369.84;;;27.64;37.08
72444;BME280;60449;52.016;5.414;2022-10-19T13:31:50;102366.19;;;27.65;37.37
72444;BME280;60449;52.016;5.414;2022-10-19T13:32:42;102362.53;;;27.66;37.08
72444;BME280;60449;52.016;5.414;2022-10-19T13:33:46;102365.16;;;27.67;36.90
72444;BME280;60449;52.016;5.414;2022-10-19T13:34:38;102362.41;;;27.69;36.95
72444;BME280;60449;52.016;5.414;2022-10-19T13:35:32;102365.13;;;27.69;36.83
72444;BME280;60449;52.016;5.414;2022-10-19T13:36:24;102359.69;;;27.69;36.76
72444;BME280;60449;52.016;5.414;2022-10-19T13:37:17;102356.97;;;27.69;36.85
72444;BME280;60449;52.016;5.414;2022-10-19T13:38:21;102355.09;;;27.71;36.79
72444;BME280;60449;52.016;5.414;2022-10-19T13:39:15;102352.31;;;27.73;36.85
72444;BME280;60449;52.016;5.414;2022-10-19T13:40:18;102346.00;;;27.72;37.02
72444;BME280;60449;52.016;5.414;2022-10-19T13:41:13;102347.78;;;27.73;36.83
72444;BME280;60449;52.016;5.414;2022-10-19T13:42:04;102352.31;;;27.73;36.87
72444;BME280;60449;52.016;5.414;2022-10-19T13:43:18;102349.53;;;27.74;36.84
72444;BME280;60449;52.016;5.414;2022-10-19T13:44:19;102346.78;;;27.76;36.89
72444;BME280;60449;52.016;5.414;2022-10-19T13:45:24;102356.72;;;27.75;36.84
72444;BME280;60449;52.016;5.414;2022-10-19T13:46:19;102347.66;;;27.76;36.67
72444;BME280;60449;52.016;5.414;2022-10-19T13:47:34;102343.13;;;27.77;36.55
72444;BME280;60449;52.016;5.414;2022-10-19T13:48:41;102344.97;;;27.76;36.73
72444;BME280;60449;52.016;5.414;2022-10-19T13:50:20;102344.00;;;27.77;36.79
72444;BME280;60449;52.016;5.414;2022-10-19T13:51:31;102333.97;;;27.79;36.71
72444;BME280;60449;52.016;5.414;2022-10-19T13:52:59;102343.88;;;27.80;36.71
72444;BME280;60449;52.016;5.414;2022-10-19T13:54:02;102332.09;;;27.81;36.65
72444;BME280;60449;52.016;5.414;2022-10-19T13:55:44;102330.22;;;27.82;36.63
72444;BME280;60449;52.016;5.414;2022-10-19T13:57:01;102339.47;;;27.78;36.73
72444;BME280;60449;52.016;5.414;2022-10-19T13:58:38;102322.72;;;27.68;32.90
72444;BME280;60449;52.016;5.414;2022-10-19T14:00:08;102332.00;;;25.64;32.38
72444;BME280;60449;52.016;5.414;2022-10-19T14:01:15;102324.22;;;23.95;35.03
72444;BME280;60449;52.016;5.414;2022-10-19T14:02:42;102330.00;;;22.06;37.96
72444;BME280;60449;52.016;5.414;2022-10-19T14:04:02;102325.19;;;21.07;40.31
72444;BME280;60449;52.016;5.414;2022-10-19T14:05:23;102329.38;;;21.30;40.66
72444;BME280;60449;52.016;5.414;2022-10-19T14:06:32;102325.78;;;21.31;40.32
72444;BME280;60449;52.016;5.414;2022-10-19T14:07:40;102334.97;;;21.76;39.76
72444;BME280;60449;52.016;5.414;2022-10-19T14:08:55;102335.22;;;22.15;38.48
72444;BME280;60449;52.016;5.414;2022-10-19T14:10:12;102320.75;;;21.69;39.20
72444;BME280;60449;52.016;5.414;2022-10-19T14:11:13;102331.00;;;20.70;41.25
72444;BME280;60449;52.016;5.414;2022-10-19T14:12:12;102325.44;;;20.89;40.75
72444;BME280;60449;52.016;5.414;2022-10-19T14:13:14;102337.13;;;19.89;43.34
72444;BME280;60449;52.016;5.414;2022-10-19T14:14:14;102327.84;;;20.32;43.19
72444;BME280;60449;52.016;5.414;2022-10-19T14:15:28;102334.91;;;20.39;42.38
72444;BME280;60449;52.016;5.414;2022-10-19T14:16:20;102334.75;;;19.44;44.61
72444;BME280;60449;52.016;5.414;2022-10-19T14:17:14;102331.84;;;19.80;44.30
72444;BME280;60449;52.016;5.414;2022-10-19T14:18:21;102323.34;;;19.20;43.78
72444;BME280;60449;52.016;5.414;2022-10-19T14:19:13;102329.47;;;19.36;44.58
72444;BME280;60449;52.016;5.414;2022-10-19T14:20:29;102333.09;;;19.23;45.86
72444;BME280;60449;52.016;5.414;2022-10-19T14:21:29;102328.00;;;18.48;46.18
72444;BME280;60449;52.016;5.414;2022-10-19T14:22:25;102330.59;;;18.86;45.72
72444;BME280;60449;52.016;5.414;2022-10-19T14:23:19;102325.03;;;19.34;45.12
72444;BME280;60449;52.016;5.414;2022-10-19T14:24:18;102329.47;;;19.38;45.73
72444;BME280;60449;52.016;5.414;2022-10-19T14:25:17;102328.41;;;19.64;45.53
72444;BME280;60449;52.016;5.414;2022-10-19T14:26:13;102338.69;;;17.70;49.13
72444;BME280;60449;52.016;5.414;2022-10-19T14:27:07;102335.16;;;18.43;47.26
72444;BME280;60449;52.016;5.414;2022-10-19T14:28:00;102328.00;;;17.49;47.54
72444;BME280;60449;52.016;5.414;2022-10-19T14:28:53;102328.75;;;16.99;49.01
72444;BME280;60449;52.016;5.414;2022-10-19T14:29:49;102329.78;;;17.50;48.49
72444;BME280;60449;52.016;5.414;2022-10-19T14:30:41;102328.00;;;17.49;48.60
72444;BME280;60449;52.016;5.414;2022-10-19T14:31:35;102324.44;;;17.56;48.75
72444;BME280;60449;52.016;5.414;2022-10-19T14:32:28;102321.81;;;17.84;47.01
72444;BME280;60449;52.016;5.414;2022-10-19T14:33:18;102320.91;;;18.01;47.36
72444;BME280;60449;52.016;5.414;2022-10-19T14:34:09;102320.06;;;18.09;47.26
72444;BME280;60449;52.016;5.414;2022-10-19T14:35:05;102315.56;;;17.51;48.17
72444;BME280;60449;52.016;5.414;2022-10-19T14:36:16;102315.31;;;16.81;49.58
72444;BME280;60449;52.016;5.414;2022-10-19T14:37:16;102311.06;;;17.36;49.02
72444;BME280;60449;52.016;5.414;2022-10-19T14:38:18;102310.03;;;16.98;50.55
72444;BME280;60449;52.016;5.414;2022-10-19T14:39:25;102307.59;;;17.60;50.10
72444;BME280;60449;52.016;5.414;2022-10-19T14:40:25;102312.00;;;17.55;49.83
72444;BME280;60449;52.016;5.414;2022-10-19T14:41:20;102313.72;;;17.16;50.15
72444;BME280;60449;52.016;5.414;2022-10-19T14:42:18;102320.94;;;18.16;48.42
72444;BME280;60449;52.016;5.414;2022-10-19T14:43:19;102312.88;;;18.49;48.66
72444;BME280;60449;52.016;5.414;2022-10-19T14:44:33;102311.81;;;19.09;46.31
72444;BME280;60449;52.016;5.414;2022-10-19T14:45:28;102317.84;;;19.40;45.50
72444;BME280;60449;52.016;5.414;2022-10-19T14:46:24;102306.94;;;19.72;44.91
72444;BME280;60449;52.016;5.414;2022-10-19T14:47:21;102313.59;;;19.11;45.90
72444;BME280;60449;52.016;5.414;2022-10-19T14:48:17;102306.47;;;19.04;46.35
72444;BME280;60449;52.016;5.414;2022-10-19T14:49:10;102302.84;;;19.13;46.14
72444;BME280;60449;52.016;5.414;2022-10-19T14:50:02;102308.16;;;19.27;47.35
72444;BME280;60449;52.016;5.414;2022-10-19T14:50:56;102298.91;;;19.70;47.24
72444;BME280;60449;52.016;5.414;2022-10-19T14:51:52;102300.06;;;19.32;46.02
72444;BME280;60449;52.016;5.414;2022-10-19T14:52:50;102298.47;;;18.96;46.21
72444;BME280;60449;52.016;5.414;2022-10-19T14:53:51;102297.97;;;19.79;44.82
72444;BME280;60449;52.016;5.414;2022-10-19T14:54:49;102292.03;;;19.36;45.96
72444;BME280;60449;52.016;5.414;2022-10-19T14:55:45;102292.72;;;19.65;44.96
72444;BME280;60449;52.016;5.414;2022-10-19T14:56:45;102290.00;;;19.73;45.63
72444;BME280;60449;52.016;5.414;2022-10-19T14:57:43;102287.31;;;19.70;47.30
72444;BME280;60449;52.016;5.414;2022-10-19T14:58:40;102288.69;;;20.19;46.12
72444;BME280;60449;52.016;5.414;2022-10-19T14:59:46;102290.31;;;20.35;45.43
72444;BME280;60449;52.016;5.414;2022-10-19T15:00:42;102282.44;;;20.21;45.78
72444;BME280;60449;52.016;5.414;2022-10-19T15:01:37;102283.31;;;20.22;44.99
72444;BME280;60449;52.016;5.414;2022-10-19T15:02:33;102282.72;;;19.84;46.04
72444;BME280;60449;52.016;5.414;2022-10-19T15:03:29;102281.38;;;19.30;46.73
72444;BME280;60449;52.016;5.414;2022-10-19T15:04:23;102277.50;;;19.72;45.89
72444;BME280;60449;52.016;5.414;2022-10-19T15:05:19;102272.28;;;19.54;45.80
72444;BME280;60449;52.016;5.414;2022-10-19T15:06:17;102273.81;;;19.88;44.84
72444;BME280;60449;52.016;5.414;2022-10-19T15:07:18;102268.81;;;19.38;46.00
72444;BME280;60449;52.016;5.414;2022-10-19T15:08:19;102271.41;;;19.51;45.50
72444;BME280;60449;52.016;5.414;2022-10-19T15:09:21;102262.97;;;18.65;46.99
72444;BME280;60449;52.016;5.414;2022-10-19T15:12:26;102264.81;;;16.99;50.43
72444;BME280;60449;52.016;5.414;2022-10-19T15:13:24;102268.47;;;17.39;50.07
72444;BME280;60449;52.016;5.414;2022-10-19T15:14:19;102271.03;;;17.03;51.70
72444;BME280;60449;52.016;5.414;2022-10-19T15:15:20;102260.25;;;16.81;52.08
72444;BME280;60449;52.016;5.414;2022-10-19T15:16:40;102271.66;;;16.43;53.32
72444;BME280;60449;52.016;5.414;2022-10-19T15:17:33;102258.25;;;16.27;53.12
72444;BME280;60449;52.016;5.414;2022-10-19T15:18:33;102258.34;;;16.43;52.17
72444;BME280;60449;52.016;5.414;2022-10-19T15:19:30;102263.56;;;16.27;52.89
72444;BME280;60449;52.016;5.414;2022-10-19T15:20:25;102258.41;;;16.62;52.02
72444;BME280;60449;52.016;5.414;2022-10-19T15:21:20;102258.22;;;16.20;53.82
72444;BME280;60449;52.016;5.414;2022-10-19T15:22:16;102265.28;;;16.22;53.31
72444;BME280;60449;52.016;5.414;2022-10-19T15:23:31;102254.63;;;16.13;53.48
72444;BME280;60449;52.016;5.414;2022-10-19T15:24:26;102258.25;;;16.24;53.24
72444;BME280;60449;52.016;5.414;2022-10-19T15:25:32;102256.38;;;16.11;53.72
72444;BME280;60449;52.016;5.414;2022-10-19T15:26:28;102251.72;;;15.85;53.67
72444;BME280;60449;52.016;5.414;2022-10-19T15:27:21;102256.22;;;15.89;54.19
72444;BME280;60449;52.016;5.414;2022-10-19T15:28:28;102249.09;;;15.86;54.17
72444;BME280;60449;52.016;5.414;2022-10-19T15:29:27;102242.97;;;15.97;54.04
72444;BME280;60449;52.016;5.414;2022-10-19T15:30:27;102243.81;;;15.90;54.85
72444;BME280;60449;52.016;5.414;2022-10-19T15:31:24;102255.66;;;15.28;55.41
72444;BME280;60449;52.016;5.414;2022-10-19T15:32:22;102241.28;;;15.06;56.70
72444;BME280;60449;52.016;5.414;2022-10-19T15:33:16;102247.50;;;15.10;57.17
72444;BME280;60449;52.016;5.414;2022-10-19T15:34:22;102240.44;;;15.13;57.06
72444;BME280;60449;52.016;5.414;2022-10-19T15:35:27;102250.09;;;15.02;57.13
72444;BME280;60449;52.016;5.414;2022-10-19T15:36:20;102239.13;;;14.76;58.51
72444;BME280;60449;52.016;5.414;2022-10-19T15:37:19;102245.03;;;14.53;60.06
72444;BME280;60449;52.016;5.414;2022-10-19T15:38:17;102244.50;;;14.80;58.93
72444;BME280;60449;52.016;5.414;2022-10-19T15:39:20;102242.69;;;14.76;59.04
